Time;durP1;ratioP1;P1;durP2;ratioP2;P2;SDS_P1;SDS_P2;PMS_P1;PMS_P2;Temp;Humidity;BMP_temperature;BMP_pressure;BME280_temperature;BME280_humidity;BME280_pressure;Samples;Min_cycle;Max_cycle;Signal;HPM_P1;HPM_P2
2022/10/17 14:19:27;;;;;;;12.37;10.07;;;22.60;66.90;;;;;;5167605;27;20578;-67
2022/10/17 14:22:14;;;;;;;13.13;7.77;;;22.00;68.00;;;;;;5151488;27;20214;-66
2022/10/17 14:24:42;;;;;;;6.93;6.20;;;21.50;70.10;;;;;;5151148;27;20667;-69
2022/10/17 14:27:27;;;;;;;9.67;7.90;;;21.00;72.40;;;;;;5151336;27;20223;-71
2022/10/17 14:29:59;;;;;;;15.60;10.03;;;20.80;74.20;;;;;;5151125;27;20202;-69
2022/10/17 14:32:29;;;;;;;32.23;25.07;;;20.60;76.00;;;;;;5151427;27;20685;-76
2022/10/17 14:35:01;;;;;;;55.80;43.13;;;20.50;77.70;;;;;;5150999;27;20211;-69
2022/10/17 14:37:49;;;;;;;27.90;20.07;;;20.40;80.50;;;;;;5150855;27;20222;-73
2022/10/17 14:40:20;;;;;;;38.13;23.97;;;20.20;80.20;;;;;;5151108;27;20196;-72
2022/10/17 14:42:49;;;;;;;16.80;11.60;;;20.10;81.00;;;;;;5150739;27;20197;-67
2022/10/17 14:45:23;;;;;;;22.73;16.03;;;20.00;82.00;;;;;;5150654;27;20233;-67
2022/10/17 14:47:52;;;;;;;16.17;13.70;;;19.90;83.30;;;;;;5151063;27;20200;-68
2022/10/17 14:50:24;;;;;;;8.93;7.33;;;19.80;84.00;;;;;;5149205;27;20696;-68
2022/10/17 14:53:00;;;;;;;11.87;8.43;;;19.70;84.30;;;;;;5150786;27;20537;-67
2022/10/17 14:55:30;;;;;;;9.77;8.43;;;19.70;84.80;;;;;;5150813;27;20672;-68
2022/10/17 14:57:59;;;;;;;13.93;9.67;;;19.60;85.40;;;;;;5150606;27;20227;-48
2022/10/17 18:02:11;;;;;;;46.13;25.40;;;23.60;67.90;;;;;;5146432;27;20714;-77
2022/10/17 19:57:35;;;;;;;75.27;34.47;;;23.60;91.50;;;;;;5167407;27;20649;-74
2022/10/17 20:00:05;;;;;;;39.27;22.53;;;24.30;90.00;;;;;;5151138;27;20190;-80
2022/10/17 20:02:41;;;;;;;18.23;13.00;;;24.00;87.90;;;;;;5150193;27;20722;-82
2022/10/17 20:05:12;;;;;;;15.07;11.83;;;22.70;83.90;;;;;;5148801;27;20193;-81
2022/10/17 20:07:52;;;;;;;15.43;12.30;;;21.50;86.10;;;;;;5049465;28;20218;-81
2022/10/17 20:10:21;;;;;;;15.97;11.77;;;20.70;87.90;;;;;;5061662;28;20686;-80
2022/10/17 20:12:51;;;;;;;14.07;11.67;;;20.20;89.40;;;;;;5035690;28;20219;-79
2022/10/17 20:15:39;;;;;;;17.07;11.37;;;19.90;90.00;;;;;;5026819;28;20287;-80
2022/10/17 20:18:08;;;;;;;14.60;12.30;;;19.80;90.30;;;;;;5026564;28;20253;-83
2022/10/17 20:20:47;;;;;;;;;;;;;;;;;;;;;
2022/10/17 20:23:20;;;;;;;14.30;10.60;;;19.50;90.60;;;;;;5026457;28;20208;-79
2022/10/17 20:25:57;;;;;;;14.90;12.60;;;19.50;90.80;;;;;;5061611;28;20242;-82
2022/10/17 20:28:35;;;;;;;15.10;10.90;;;19.40;90.90;;;;;;5134190;27;20190;-81
2022/10/17 20:31:05;;;;;;;15.60;11.43;;;19.30;91.00;;;;;;5150748;27;20227;-81
2022/10/17 20:33:33;;;;;;;14.03;11.40;;;19.30;91.10;;;;;;5150055;27;20216;-80
2022/10/17 20:36:05;;;;;;;15.03;12.40;;;19.20;91.20;;;;;;5150156;27;20211;-80
2022/10/17 20:38:33;;;;;;;13.50;12.00;;;19.10;91.40;;;;;;5150396;27;20778;-81
2022/10/17 20:41:02;;;;;;;15.27;11.63;;;19.10;91.50;;;;;;5149651;27;20221;-79
2022/10/17 20:43:31;;;;;;;12.80;10.30;;;19.10;91.50;;;;;;5148591;27;20577;-80
2022/10/17 20:46:16;;;;;;;16.03;11.87;;;19.10;91.50;;;;;;5145164;27;20867;-80
2022/10/17 20:49:02;;;;;;;14.87;12.13;;;19.00;91.60;;;;;;5129390;27;20549;-81
2022/10/17 20:51:31;;;;;;;13.37;11.57;;;19.00;91.70;;;;;;5129253;28;20192;-80
2022/10/17 20:53:59;;;;;;;17.20;11.50;;;19.00;91.80;;;;;;5128404;27;20199;-80
2022/10/17 20:56:29;;;;;;;14.27;11.27;;;18.90;91.90;;;;;;5128931;28;20733;-82
2022/10/17 20:59:00;;;;;;;20.43;11.80;;;18.90;92.00;;;;;;5129019;28;20536;-79
2022/10/17 21:01:35;;;;;;;12.13;10.23;;;18.90;92.00;;;;;;5129068;28;20188;-81
2022/10/17 21:04:04;;;;;;;13.47;10.77;;;18.90;92.10;;;;;;5128635;28;20196;-80
2022/10/17 21:06:54;;;;;;;17.03;11.13;;;19.00;92.00;;;;;;5124857;28;20201;-81
2022/10/17 21:09:36;;;;;;;11.70;10.43;;;18.90;92.00;;;;;;5112885;28;20213;-80
2022/10/17 21:12:04;;;;;;;12.70;10.27;;;18.90;92.40;;;;;;5115277;28;20276;-80
2022/10/17 21:14:35;;;;;;;13.70;10.83;;;19.00;91.90;;;;;;5114632;28;20198;-79
2022/10/17 21:17:05;;;;;;;13.37;10.23;;;19.10;91.70;;;;;;5114913;28;20208;-80
2022/10/17 21:19:35;;;;;;;15.73;10.27;;;19.20;91.60;;;;;;5096845;28;20629;-81
2022/10/17 21:22:05;;;;;;;14.33;9.03;;;19.20;91.40;;;;;;5115016;28;20693;-80
2022/10/17 21:24:39;;;;;;;14.20;10.27;;;19.20;91.40;;;;;;5096090;28;20206;-81
2022/10/17 21:27:15;;;;;;;14.13;9.83;;;19.20;91.40;;;;;;5114891;28;20189;-84
2022/10/17 21:29:48;;;;;;;11.70;9.73;;;19.20;91.40;;;;;;5114598;28;20191;-83
2022/10/17 21:32:18;;;;;;;12.93;10.40;;;19.20;91.50;;;;;;5121173;22;20188;-78
2022/10/17 21:34:52;;;;;;;15.17;11.63;;;19.10;91.60;;;;;;5114548;28;20245;-80
2022/10/17 21:37:23;;;;;;;14.37;9.60;;;19.20;91.60;;;;;;5114102;28;20212;-81
2022/10/17 21:39:58;;;;;;;13.33;9.30;;;19.20;91.50;;;;;;5114700;28;20183;-83
2022/10/17 21:45:39;;;;;;;12.70;9.40;;;19.20;91.40;;;;;;5113152;28;20254;-83
2022/10/17 21:48:09;;;;;;;13.77;9.30;;;19.10;91.50;;;;;;5114417;28;20188;-81
2022/10/17 21:50:41;;;;;;;10.40;9.20;;;19.20;91.60;;;;;;5114470;28;20201;-82
2022/10/17 21:53:09;;;;;;;12.33;9.70;;;19.20;91.50;;;;;;5114090;28;20197;-81
2022/10/17 21:55:38;;;;;;;16.87;10.27;;;19.30;91.30;;;;;;5114382;28;20227;-82
2022/10/17 21:58:06;;;;;;;11.40;8.03;;;19.40;91.10;;;;;;5114181;28;20212;-82
2022/10/17 22:00:34;;;;;;;11.27;9.00;;;19.40;91.00;;;;;;5114312;28;20188;-83
2022/10/17 22:03:04;;;;;;;12.23;8.80;;;19.50;90.90;;;;;;5112795;28;20210;-83
2022/10/17 22:05:37;;;;;;;12.40;8.37;;;19.50;90.90;;;;;;5095426;28;20204;-81
2022/10/17 22:08:17;;;;;;;11.87;8.57;;;19.50;90.80;;;;;;5095450;28;20286;-80
2022/10/17 22:10:49;;;;;;;11.33;9.27;;;19.60;90.80;;;;;;5114022;28;20219;-82
2022/10/17 22:13:30;;;;;;;13.00;8.33;;;19.60;90.80;;;;;;5114201;28;20286;-84
2022/10/17 22:15:59;;;;;;;11.23;8.43;;;19.60;90.80;;;;;;5045406;28;20406;-83
2022/10/17 22:18:29;;;;;;;9.87;8.13;;;19.60;90.90;;;;;;5113728;28;20220;-84
2022/10/17 22:21:03;;;;;;;9.80;8.20;;;19.60;90.90;;;;;;5110430;28;20651;-85
2022/10/17 22:23:33;;;;;;;10.50;8.67;;;19.60;91.00;;;;;;5095243;28;20201;-80
2022/10/17 22:26:02;;;;;;;13.00;8.50;;;19.60;91.00;;;;;;5117468;28;20379;-84
2022/10/17 22:28:46;;;;;;;12.40;8.07;;;19.60;91.00;;;;;;5118203;28;20200;-82
2022/10/17 22:31:23;;;;;;;11.50;9.17;;;19.60;91.10;;;;;;5114022;28;20707;-83
2022/10/17 22:33:55;;;;;;;14.13;10.00;;;19.60;91.20;;;;;;5091459;28;20229;-82
2022/10/17 22:39:39;;;;;;;10.40;7.87;;;19.60;91.30;;;;;;5049497;28;20203;-84
2022/10/17 22:42:08;;;;;;;11.63;8.33;;;19.60;91.40;;;;;;5033872;28;20226;-83
2022/10/17 22:44:56;;;;;;;9.33;8.37;;;19.70;91.50;;;;;;5048231;28;20289;-85
2022/10/17 22:47:29;;;;;;;11.63;8.10;;;19.70;91.60;;;;;;5050465;28;20804;-84
2022/10/17 22:50:06;;;;;;;9.87;8.33;;;19.60;91.80;;;;;;5105037;22;20238;-85
2022/10/17 22:52:41;;;;;;;13.20;8.67;;;19.60;91.90;;;;;;5052648;28;20607;-84
2022/10/17 22:55:25;;;;;;;11.93;7.80;;;19.60;92.10;;;;;;5050262;28;20211;-86
2022/10/17 22:58:02;;;;;;;11.03;8.23;;;19.50;92.30;;;;;;5051422;28;20207;-84
2022/10/17 23:00:31;;;;;;;13.30;8.70;;;19.50;92.60;;;;;;5034748;28;20263;-84
2022/10/17 23:03:00;;;;;;;12.53;7.97;;;19.50;92.80;;;;;;5059438;22;20330;-84
2022/10/17 23:05:34;;;;;;;9.40;7.67;;;19.40;93.20;;;;;;5050594;28;20199;-84
2022/10/17 23:11:14;;;;;;;12.90;7.53;;;19.20;94.20;;;;;;4973897;28;20196;-84
2022/10/17 23:14:04;;;;;;;10.63;7.77;;;19.10;94.60;;;;;;4947838;22;20704;-82
2022/10/17 23:16:32;;;;;;;7.33;6.57;;;19.00;95.10;;;;;;5071031;28;20205;-85
2022/10/17 23:19:03;;;;;;;10.40;8.10;;;18.90;95.50;;;;;;5070517;28;20205;-83
2022/10/17 23:21:35;;;;;;;10.43;7.77;;;18.90;95.90;;;;;;5054281;28;20251;-83
2022/10/17 23:24:20;;;;;;;9.20;8.00;;;18.80;96.20;;;;;;5069888;28;20208;-84
2022/10/17 23:29:48;;;;;;;11.20;8.03;;;18.70;96.70;;;;;;5025579;28;20220;-82
2022/10/17 23:38:31;;;;;;;10.10;8.53;;;18.50;97.40;;;;;;4980580;28;20739;-84
2022/10/17 23:42:03;;;;;;;8.27;7.47;;;18.50;97.60;;;;;;5009528;28;20204;-84
2022/10/17 23:44:51;;;;;;;11.17;7.60;;;18.50;97.80;;;;;;5009220;28;20215;-84
2022/10/17 23:47:26;;;;;;;7.53;6.83;;;18.50;97.90;;;;;;4992150;28;20222;-84
2022/10/17 23:49:59;;;;;;;7.17;6.23;;;18.40;98.00;;;;;;4976575;28;20205;-87
2022/10/17 23:52:27;;;;;;;9.27;6.70;;;18.40;98.20;;;;;;4993142;28;20280;-84
2022/10/17 23:58:12;;;;;;;7.13;5.90;;;18.40;98.30;;;;;;4989081;28;20686;-83
